Calumet Park, IL (60827)

3:16 AM CDT on August 25, 2016 (GMT -0500)
Historic Pullman | | Change Station

Elev 623 ft 41.69 °N, 87.61 °W | Updated 1 minute ago

Mostly Cloudy
Mostly Cloudy
73.2 °F
Feels Like 73.2 °F
N
2.7
Wind Variable Wind from SE

Today
High -- | Low -- °F
--% Chance of Precip.
Yesterday
High -- | Low -- °F
Precip. -- in
Pressure 29.98 in
Visibility 10.0 miles
Clouds Scattered Clouds 7500 ft
Scattered Clouds 8500 ft
Mostly Cloudy 11000 ft
Dew Point 71 °F
Humidity 94%
Rainfall 0.04 in
Snow Depth Not available.
6:09 AM 7:34 PM
Waning Gibbous, 48% visible
METAR KIGQ 250755Z AUTO 18006KT 10SM SCT075 SCT085 BKN110 21/20 A2998 RMK AO2 LTG DSNT E THRU SW T02120195
Pressure 29.98 in
Visibility 10.0 miles
Clouds Scattered Clouds 7500 ft
Scattered Clouds 8500 ft
Mostly Cloudy 11000 ft
Dew Point 71 °F
Humidity 94%
Rainfall 0.04 in
Snow Depth Not available.
6:09 AM 7:34 PM
Waning Gibbous, 48% visible
METAR KIGQ 250755Z AUTO 18006KT 10SM SCT075 SCT085 BKN110 21/20 A2998 RMK AO2 LTG DSNT E THRU SW T02120195

10-Day Weather Forecast

Almanac

Astronomy

Aug. 25, 2016 Rise Set
Actual Time
Civil Twilight
Nautical Twilight
Astronomical Twilight
Moon
Length of Visible Light
Length of Day
Tomorrow will be .
, % of the Moon is Illuminated

Today's Extremes

State Highs State Lows

Community

WunderPhotos

Upload Photos

1,934,814 photos uploaded!

WunderBlog® & News

Nearby

Air Quality

  Air Quality AQ Index Pollutant
Not available.

Snow Depth

Station Depth Elevation

Earthquake Activity

City Distance Mag. Time & Date
Minimum magnitude displayed is 2.5.

Coastal Water Temperatures

Place Temperature

Stations

Nearby Weather Stations

Station Location Temp. Windchill Dew Point Humidity Wind Precip. Elev Updated Type
                   

Watches & Warnings

There are currently no watches in effect.